sensor_id;sensor_type;location;lat;lon;timestamp;temperature;humidity
17619;DHT22;8928;51.678;6.074;2023-12-20T00:00:00;8.60;99.90
17619;DHT22;8928;51.678;6.074;2023-12-20T00:02:47;8.60;99.90
17619;DHT22;8928;51.678;6.074;2023-12-20T00:05:34;8.70;99.90
17619;DHT22;8928;51.678;6.074;2023-12-20T00:08:23;8.70;99.90
17619;DHT22;8928;51.678;6.074;2023-12-20T00:11:10;8.70;99.90
17619;DHT22;8928;51.678;6.074;2023-12-20T00:13:59;8.70;99.90
17619;DHT22;8928;51.678;6.074;2023-12-20T00:16:46;8.60;99.90
17619;DHT22;8928;51.678;6.074;2023-12-20T00:19:33;8.70;99.90
17619;DHT22;8928;51.678;6.074;2023-12-20T00:22:20;8.70;99.90
17619;DHT22;8928;51.678;6.074;2023-12-20T00:25:07;8.50;99.90
17619;DHT22;8928;51.678;6.074;2023-12-20T00:27:54;8.40;99.90
17619;DHT22;8928;51.678;6.074;2023-12-20T00:30:43;8.30;99.90
17619;DHT22;8928;51.678;6.074;2023-12-20T00:33:30;8.10;99.90
17619;DHT22;8928;51.678;6.074;2023-12-20T00:36:17;8.00;99.90
17619;DHT22;8928;51.678;6.074;2023-12-20T00:39:04;8.00;99.90
17619;DHT22;8928;51.678;6.074;2023-12-20T00:41:52;8.00;99.90
17619;DHT22;8928;51.678;6.074;2023-12-20T00:44:39;7.90;99.90
17619;DHT22;8928;51.678;6.074;2023-12-20T00:47:28;7.80;99.90
17619;DHT22;8928;51.678;6.074;2023-12-20T00:50:15;7.90;99.90
17619;DHT22;8928;51.678;6.074;2023-12-20T00:53:02;8.00;99.90
17619;DHT22;8928;51.678;6.074;2023-12-20T00:55:49;7.90;99.90
17619;DHT22;8928;51.678;6.074;2023-12-20T00:58:36;7.80;99.90
17619;DHT22;8928;51.678;6.074;2023-12-20T01:01:23;7.70;99.90
17619;DHT22;8928;51.678;6.074;2023-12-20T01:04:11;7.70;99.90
17619;DHT22;8928;51.678;6.074;2023-12-20T01:06:58;7.60;99.90
17619;DHT22;8928;51.678;6.074;2023-12-20T01:09:45;7.50;99.90
17619;DHT22;8928;51.678;6.074;2023-12-20T01:12:32;7.50;99.90
17619;DHT22;8928;51.678;6.074;2023-12-20T01:15:19;7.50;99.90
17619;DHT22;8928;51.678;6.074;2023-12-20T01:18:06;7.30;99.90
17619;DHT22;8928;51.678;6.074;2023-12-20T01:20:55;7.20;99.90
17619;DHT22;8928;51.678;6.074;2023-12-20T01:23:42;7.20;99.90
17619;DHT22;8928;51.678;6.074;2023-12-20T01:26:29;7.20;99.90
17619;DHT22;8928;51.678;6.074;2023-12-20T01:29:16;7.10;99.90
17619;DHT22;8928;51.678;6.074;2023-12-20T01:32:04;7.10;99.90
17619;DHT22;8928;51.678;6.074;2023-12-20T01:34:51;7.10;99.90
17619;DHT22;8928;51.678;6.074;2023-12-20T01:37:39;7.00;99.90
17619;DHT22;8928;51.678;6.074;2023-12-20T01:40:26;7.00;99.90
17619;DHT22;8928;51.678;6.074;2023-12-20T01:43:13;7.00;99.90
17619;DHT22;8928;51.678;6.074;2023-12-20T01:46:00;7.00;99.90
17619;DHT22;8928;51.678;6.074;2023-12-20T01:48:49;7.00;99.90
17619;DHT22;8928;51.678;6.074;2023-12-20T01:51:36;7.10;99.90
17619;DHT22;8928;51.678;6.074;2023-12-20T01:54:25;6.80;99.90
17619;DHT22;8928;51.678;6.074;2023-12-20T01:57:12;7.20;99.90
17619;DHT22;8928;51.678;6.074;2023-12-20T01:59:59;7.20;99.90
17619;DHT22;8928;51.678;6.074;2023-12-20T02:02:46;7.10;99.90
17619;DHT22;8928;51.678;6.074;2023-12-20T02:05:35;7.10;99.90
17619;DHT22;8928;51.678;6.074;2023-12-20T02:08:22;7.20;99.90
17619;DHT22;8928;51.678;6.074;2023-12-20T02:11:11;7.20;99.90
17619;DHT22;8928;51.678;6.074;2023-12-20T02:13:58;7.30;99.90
17619;DHT22;8928;51.678;6.074;2023-12-20T02:16:45;7.30;99.90
17619;DHT22;8928;51.678;6.074;2023-12-20T02:19:32;7.40;99.90
17619;DHT22;8928;51.678;6.074;2023-12-20T02:22:21;7.30;99.90
17619;DHT22;8928;51.678;6.074;2023-12-20T02:25:08;7.20;99.90
17619;DHT22;8928;51.678;6.074;2023-12-20T02:27:55;7.20;99.90
17619;DHT22;8928;51.678;6.074;2023-12-20T02:30:42;7.10;99.90
17619;DHT22;8928;51.678;6.074;2023-12-20T02:33:29;7.10;99.90
17619;DHT22;8928;51.678;6.074;2023-12-20T02:36:16;7.10;99.90
17619;DHT22;8928;51.678;6.074;2023-12-20T02:39:05;7.20;99.90
17619;DHT22;8928;51.678;6.074;2023-12-20T02:41:52;7.20;99.90
17619;DHT22;8928;51.678;6.074;2023-12-20T02:44:39;7.10;99.90
17619;DHT22;8928;51.678;6.074;2023-12-20T02:47:26;7.10;99.90
17619;DHT22;8928;51.678;6.074;2023-12-20T02:50:13;7.00;99.90
17619;DHT22;8928;51.678;6.074;2023-12-20T02:53:00;7.10;99.90
17619;DHT22;8928;51.678;6.074;2023-12-20T02:55:48;7.00;99.90
17619;DHT22;8928;51.678;6.074;2023-12-20T02:58:35;6.90;99.90
17619;DHT22;8928;51.678;6.074;2023-12-20T03:01:22;6.90;99.90
17619;DHT22;8928;51.678;6.074;2023-12-20T03:04:10;6.80;99.90
17619;DHT22;8928;51.678;6.074;2023-12-20T03:06:57;6.90;99.90
17619;DHT22;8928;51.678;6.074;2023-12-20T03:09:44;6.90;99.90
17619;DHT22;8928;51.678;6.074;2023-12-20T03:12:32;6.90;99.90
17619;DHT22;8928;51.678;6.074;2023-12-20T03:15:19;6.80;99.90
17619;DHT22;8928;51.678;6.074;2023-12-20T03:18:06;6.80;99.90
17619;DHT22;8928;51.678;6.074;2023-12-20T03:20:53;6.90;99.90
17619;DHT22;8928;51.678;6.074;2023-12-20T03:23:41;6.90;99.90
17619;DHT22;8928;51.678;6.074;2023-12-20T03:26:29;6.90;99.90
17619;DHT22;8928;51.678;6.074;2023-12-20T03:29:17;6.80;99.90
17619;DHT22;8928;51.678;6.074;2023-12-20T03:32:04;7.00;99.90
17619;DHT22;8928;51.678;6.074;2023-12-20T03:34:52;7.10;99.90
17619;DHT22;8928;51.678;6.074;2023-12-20T03:37:39;7.20;99.90
17619;DHT22;8928;51.678;6.074;2023-12-20T03:40:26;7.10;99.90
17619;DHT22;8928;51.678;6.074;2023-12-20T03:43:13;7.10;99.90
17619;DHT22;8928;51.678;6.074;2023-12-20T03:46:01;7.10;99.90
17619;DHT22;8928;51.678;6.074;2023-12-20T03:48:49;7.00;99.90
17619;DHT22;8928;51.678;6.074;2023-12-20T03:51:36;7.00;99.90
17619;DHT22;8928;51.678;6.074;2023-12-20T03:54:24;7.10;99.90
17619;DHT22;8928;51.678;6.074;2023-12-20T03:57:11;7.00;99.90
17619;DHT22;8928;51.678;6.074;2023-12-20T03:59:58;7.00;99.90
17619;DHT22;8928;51.678;6.074;2023-12-20T04:02:46;6.90;99.90
17619;DHT22;8928;51.678;6.074;2023-12-20T04:05:33;6.80;99.90
17619;DHT22;8928;51.678;6.074;2023-12-20T04:08:20;6.70;99.90
17619;DHT22;8928;51.678;6.074;2023-12-20T04:11:07;6.60;99.90
17619;DHT22;8928;51.678;6.074;2023-12-20T04:13:54;6.60;99.90
17619;DHT22;8928;51.678;6.074;2023-12-20T04:16:41;6.70;99.90
17619;DHT22;8928;51.678;6.074;2023-12-20T04:19:30;6.70;99.90
17619;DHT22;8928;51.678;6.074;2023-12-20T04:22:17;6.70;99.90
17619;DHT22;8928;51.678;6.074;2023-12-20T04:25:05;6.80;99.90
17619;DHT22;8928;51.678;6.074;2023-12-20T04:27:52;7.00;99.90
17619;DHT22;8928;51.678;6.074;2023-12-20T04:30:39;7.00;99.90
17619;DHT22;8928;51.678;6.074;2023-12-20T04:33:26;7.10;99.90
17619;DHT22;8928;51.678;6.074;2023-12-20T04:36:14;7.20;99.90
17619;DHT22;8928;51.678;6.074;2023-12-20T04:39:01;7.20;99.90
17619;DHT22;8928;51.678;6.074;2023-12-20T04:41:48;7.20;99.90
17619;DHT22;8928;51.678;6.074;2023-12-20T04:44:36;7.30;99.90
17619;DHT22;8928;51.678;6.074;2023-12-20T04:47:23;7.30;99.90
17619;DHT22;8928;51.678;6.074;2023-12-20T04:50:10;7.30;99.90
17619;DHT22;8928;51.678;6.074;2023-12-20T04:53:00;7.30;99.90
17619;DHT22;8928;51.678;6.074;2023-12-20T04:55:47;7.30;99.90
17619;DHT22;8928;51.678;6.074;2023-12-20T04:58:34;7.40;99.90
17619;DHT22;8928;51.678;6.074;2023-12-20T05:01:21;7.40;99.90
17619;DHT22;8928;51.678;6.074;2023-12-20T05:04:08;7.50;99.90
17619;DHT22;8928;51.678;6.074;2023-12-20T05:06:55;7.60;99.90
17619;DHT22;8928;51.678;6.074;2023-12-20T05:09:43;7.50;99.90
17619;DHT22;8928;51.678;6.074;2023-12-20T05:12:30;7.40;99.90
17619;DHT22;8928;51.678;6.074;2023-12-20T05:15:18;7.50;99.90
17619;DHT22;8928;51.678;6.074;2023-12-20T05:18:05;7.50;99.90
17619;DHT22;8928;51.678;6.074;2023-12-20T05:20:52;7.60;99.90
17619;DHT22;8928;51.678;6.074;2023-12-20T05:23:39;7.60;99.90
17619;DHT22;8928;51.678;6.074;2023-12-20T05:26:27;7.60;99.90
17619;DHT22;8928;51.678;6.074;2023-12-20T05:29:15;7.60;99.90
17619;DHT22;8928;51.678;6.074;2023-12-20T05:32:03;7.60;99.90
17619;DHT22;8928;51.678;6.074;2023-12-20T05:34:50;7.60;99.90
17619;DHT22;8928;51.678;6.074;2023-12-20T05:37:37;7.70;99.90
17619;DHT22;8928;51.678;6.074;2023-12-20T05:40:24;7.70;99.90
17619;DHT22;8928;51.678;6.074;2023-12-20T05:43:12;7.80;99.90
17619;DHT22;8928;51.678;6.074;2023-12-20T05:46:00;7.80;99.90
17619;DHT22;8928;51.678;6.074;2023-12-20T05:48:47;7.80;99.90
17619;DHT22;8928;51.678;6.074;2023-12-20T05:51:34;7.90;99.90
17619;DHT22;8928;51.678;6.074;2023-12-20T05:54:21;7.80;99.90
17619;DHT22;8928;51.678;6.074;2023-12-20T05:57:08;7.90;99.90
17619;DHT22;8928;51.678;6.074;2023-12-20T05:59:57;7.90;99.90
17619;DHT22;8928;51.678;6.074;2023-12-20T06:02:44;7.90;99.90
17619;DHT22;8928;51.678;6.074;2023-12-20T06:05:31;7.90;99.90
17619;DHT22;8928;51.678;6.074;2023-12-20T06:08:18;7.90;99.90
17619;DHT22;8928;51.678;6.074;2023-12-20T06:11:05;7.90;99.90
17619;DHT22;8928;51.678;6.074;2023-12-20T06:13:52;7.90;99.90
17619;DHT22;8928;51.678;6.074;2023-12-20T06:16:40;7.90;99.90
17619;DHT22;8928;51.678;6.074;2023-12-20T06:19:27;8.00;99.90
17619;DHT22;8928;51.678;6.074;2023-12-20T06:22:14;8.00;99.90
17619;DHT22;8928;51.678;6.074;2023-12-20T06:25:02;8.00;99.90
17619;DHT22;8928;51.678;6.074;2023-12-20T06:27:49;8.00;99.90
17619;DHT22;8928;51.678;6.074;2023-12-20T06:30:36;8.00;99.90
17619;DHT22;8928;51.678;6.074;2023-12-20T06:33:24;8.00;99.90
17619;DHT22;8928;51.678;6.074;2023-12-20T06:36:12;8.10;99.90
17619;DHT22;8928;51.678;6.074;2023-12-20T06:38:59;8.10;99.90
17619;DHT22;8928;51.678;6.074;2023-12-20T06:41:46;8.10;99.90
17619;DHT22;8928;51.678;6.074;2023-12-20T06:44:33;8.10;99.90
17619;DHT22;8928;51.678;6.074;2023-12-20T06:47:21;8.00;99.90
17619;DHT22;8928;51.678;6.074;2023-12-20T06:50:09;8.10;99.90
17619;DHT22;8928;51.678;6.074;2023-12-20T06:52:56;8.00;99.90
17619;DHT22;8928;51.678;6.074;2023-12-20T06:55:43;8.00;99.90
17619;DHT22;8928;51.678;6.074;2023-12-20T06:58:30;8.00;99.90
17619;DHT22;8928;51.678;6.074;2023-12-20T07:01:17;8.00;99.90
17619;DHT22;8928;51.678;6.074;2023-12-20T07:04:04;8.00;99.90
17619;DHT22;8928;51.678;6.074;2023-12-20T07:06:53;8.00;99.90
17619;DHT22;8928;51.678;6.074;2023-12-20T07:09:43;8.00;99.90
17619;DHT22;8928;51.678;6.074;2023-12-20T07:12:30;8.00;99.90
17619;DHT22;8928;51.678;6.074;2023-12-20T07:15:17;8.00;99.90
17619;DHT22;8928;51.678;6.074;2023-12-20T07:18:04;8.00;99.90
17619;DHT22;8928;51.678;6.074;2023-12-20T07:20:52;8.00;99.90
17619;DHT22;8928;51.678;6.074;2023-12-20T07:23:41;7.90;99.90
17619;DHT22;8928;51.678;6.074;2023-12-20T07:26:28;7.90;99.90
17619;DHT22;8928;51.678;6.074;2023-12-20T07:29:15;7.90;99.90
17619;DHT22;8928;51.678;6.074;2023-12-20T07:32:03;7.90;99.90
17619;DHT22;8928;51.678;6.074;2023-12-20T07:34:50;7.90;99.90
17619;DHT22;8928;51.678;6.074;2023-12-20T07:37:37;7.90;99.90
17619;DHT22;8928;51.678;6.074;2023-12-20T07:40:25;7.90;99.90
17619;DHT22;8928;51.678;6.074;2023-12-20T07:43:12;7.90;99.90
17619;DHT22;8928;51.678;6.074;2023-12-20T07:46:04;7.90;99.90
17619;DHT22;8928;51.678;6.074;2023-12-20T07:48:51;7.90;99.90
17619;DHT22;8928;51.678;6.074;2023-12-20T07:51:38;7.80;99.90
17619;DHT22;8928;51.678;6.074;2023-12-20T07:54:25;7.80;99.90
17619;DHT22;8928;51.678;6.074;2023-12-20T07:57:13;7.80;99.90
17619;DHT22;8928;51.678;6.074;2023-12-20T08:00:01;7.80;99.90
17619;DHT22;8928;51.678;6.074;2023-12-20T08:02:49;7.80;99.90
17619;DHT22;8928;51.678;6.074;2023-12-20T08:05:37;7.80;99.90
17619;DHT22;8928;51.678;6.074;2023-12-20T08:08:25;7.80;99.90
17619;DHT22;8928;51.678;6.074;2023-12-20T08:11:13;7.80;99.90
17619;DHT22;8928;51.678;6.074;2023-12-20T08:14:01;7.80;99.90
17619;DHT22;8928;51.678;6.074;2023-12-20T08:16:48;7.80;99.90
17619;DHT22;8928;51.678;6.074;2023-12-20T08:19:35;7.80;99.90
17619;DHT22;8928;51.678;6.074;2023-12-20T08:22:22;7.80;99.90
17619;DHT22;8928;51.678;6.074;2023-12-20T08:25:09;7.80;99.90
17619;DHT22;8928;51.678;6.074;2023-12-20T08:27:56;7.90;99.90
17619;DHT22;8928;51.678;6.074;2023-12-20T08:30:44;7.90;99.90
17619;DHT22;8928;51.678;6.074;2023-12-20T08:33:31;7.90;99.90
17619;DHT22;8928;51.678;6.074;2023-12-20T08:36:19;7.90;99.90
17619;DHT22;8928;51.678;6.074;2023-12-20T08:39:07;7.90;99.90
17619;DHT22;8928;51.678;6.074;2023-12-20T08:41:54;7.90;99.90
17619;DHT22;8928;51.678;6.074;2023-12-20T08:44:41;7.90;99.90
17619;DHT22;8928;51.678;6.074;2023-12-20T08:47:29;7.90;99.90
17619;DHT22;8928;51.678;6.074;2023-12-20T08:50:16;7.90;99.90
17619;DHT22;8928;51.678;6.074;2023-12-20T08:53:04;7.90;99.90
17619;DHT22;8928;51.678;6.074;2023-12-20T08:55:51;7.90;99.90
17619;DHT22;8928;51.678;6.074;2023-12-20T08:58:38;8.00;99.90
17619;DHT22;8928;51.678;6.074;2023-12-20T09:01:25;8.00;99.90
17619;DHT22;8928;51.678;6.074;2023-12-20T09:04:13;8.00;99.90
17619;DHT22;8928;51.678;6.074;2023-12-20T09:07:00;8.00;99.90
17619;DHT22;8928;51.678;6.074;2023-12-20T09:09:47;8.00;99.90
17619;DHT22;8928;51.678;6.074;2023-12-20T09:12:34;8.00;99.90
17619;DHT22;8928;51.678;6.074;2023-12-20T09:15:24;8.00;99.90
17619;DHT22;8928;51.678;6.074;2023-12-20T09:18:11;8.10;99.90
17619;DHT22;8928;51.678;6.074;2023-12-20T09:21:00;8.10;99.90
17619;DHT22;8928;51.678;6.074;2023-12-20T09:23:47;8.10;99.90
17619;DHT22;8928;51.678;6.074;2023-12-20T09:26:35;8.10;99.90
17619;DHT22;8928;51.678;6.074;2023-12-20T09:29:23;8.10;99.90
17619;DHT22;8928;51.678;6.074;2023-12-20T09:32:10;8.10;99.90
17619;DHT22;8928;51.678;6.074;2023-12-20T09:34:57;8.10;99.90
17619;DHT22;8928;51.678;6.074;2023-12-20T09:37:46;8.10;99.90
17619;DHT22;8928;51.678;6.074;2023-12-20T09:40:33;8.20;99.90
17619;DHT22;8928;51.678;6.074;2023-12-20T09:43:24;8.20;99.90
17619;DHT22;8928;51.678;6.074;2023-12-20T09:46:12;8.30;99.90
17619;DHT22;8928;51.678;6.074;2023-12-20T09:49:01;8.20;99.90
17619;DHT22;8928;51.678;6.074;2023-12-20T09:51:50;8.30;99.90
17619;DHT22;8928;51.678;6.074;2023-12-20T09:54:39;8.40;99.90
17619;DHT22;8928;51.678;6.074;2023-12-20T09:57:26;8.40;99.90
17619;DHT22;8928;51.678;6.074;2023-12-20T10:00:14;8.30;99.90
17619;DHT22;8928;51.678;6.074;2023-12-20T10:03:04;8.30;99.90
17619;DHT22;8928;51.678;6.074;2023-12-20T10:05:54;8.30;99.90
17619;DHT22;8928;51.678;6.074;2023-12-20T10:08:43;8.40;99.90
17619;DHT22;8928;51.678;6.074;2023-12-20T10:11:32;8.40;99.90
17619;DHT22;8928;51.678;6.074;2023-12-20T10:14:19;8.40;99.90
17619;DHT22;8928;51.678;6.074;2023-12-20T10:17:06;8.30;99.90
17619;DHT22;8928;51.678;6.074;2023-12-20T10:19:53;8.30;99.90
17619;DHT22;8928;51.678;6.074;2023-12-20T10:22:40;8.30;99.90
17619;DHT22;8928;51.678;6.074;2023-12-20T10:25:27;8.30;99.90
17619;DHT22;8928;51.678;6.074;2023-12-20T10:28:16;8.30;99.90
17619;DHT22;8928;51.678;6.074;2023-12-20T10:31:05;8.30;99.90
17619;DHT22;8928;51.678;6.074;2023-12-20T10:33:52;8.30;99.90
17619;DHT22;8928;51.678;6.074;2023-12-20T10:36:39;8.40;99.90
17619;DHT22;8928;51.678;6.074;2023-12-20T10:39:26;8.30;99.90
17619;DHT22;8928;51.678;6.074;2023-12-20T10:42:13;8.30;99.90
17619;DHT22;8928;51.678;6.074;2023-12-20T10:45:03;8.30;99.90
17619;DHT22;8928;51.678;6.074;2023-12-20T10:47:50;8.30;99.90
17619;DHT22;8928;51.678;6.074;2023-12-20T10:50:38;8.40;99.90
17619;DHT22;8928;51.678;6.074;2023-12-20T10:53:25;8.40;99.90
17619;DHT22;8928;51.678;6.074;2023-12-20T10:56:16;8.50;99.90
17619;DHT22;8928;51.678;6.074;2023-12-20T10:59:04;8.50;99.90
17619;DHT22;8928;51.678;6.074;2023-12-20T11:01:54;8.40;99.90
17619;DHT22;8928;51.678;6.074;2023-12-20T11:04:50;8.50;99.90
17619;DHT22;8928;51.678;6.074;2023-12-20T11:07:43;8.50;99.90
17619;DHT22;8928;51.678;6.074;2023-12-20T11:10:37;8.50;99.90
17619;DHT22;8928;51.678;6.074;2023-12-20T11:13:30;8.50;99.90
17619;DHT22;8928;51.678;6.074;2023-12-20T11:16:18;8.50;99.90
17619;DHT22;8928;51.678;6.074;2023-12-20T11:19:07;8.60;99.90
17619;DHT22;8928;51.678;6.074;2023-12-20T11:21:54;8.60;99.90
17619;DHT22;8928;51.678;6.074;2023-12-20T11:24:44;8.70;99.90
17619;DHT22;8928;51.678;6.074;2023-12-20T11:27:32;8.80;99.90
17619;DHT22;8928;51.678;6.074;2023-12-20T11:30:20;8.70;99.90
17619;DHT22;8928;51.678;6.074;2023-12-20T11:33:07;8.70;99.90
17619;DHT22;8928;51.678;6.074;2023-12-20T11:35:57;8.80;99.90
17619;DHT22;8928;51.678;6.074;2023-12-20T11:38:54;8.90;99.90
17619;DHT22;8928;51.678;6.074;2023-12-20T11:41:44;8.90;99.90
17619;DHT22;8928;51.678;6.074;2023-12-20T11:44:31;9.00;99.90
17619;DHT22;8928;51.678;6.074;2023-12-20T11:47:19;9.00;99.90
17619;DHT22;8928;51.678;6.074;2023-12-20T11:50:07;9.00;99.90
17619;DHT22;8928;51.678;6.074;2023-12-20T11:52:55;8.90;99.90
17619;DHT22;8928;51.678;6.074;2023-12-20T11:55:42;8.90;99.90
17619;DHT22;8928;51.678;6.074;2023-12-20T11:58:29;8.90;99.90
17619;DHT22;8928;51.678;6.074;2023-12-20T12:01:19;8.80;99.90
17619;DHT22;8928;51.678;6.074;2023-12-20T12:04:06;8.80;99.90
17619;DHT22;8928;51.678;6.074;2023-12-20T12:06:54;8.90;99.90
17619;DHT22;8928;51.678;6.074;2023-12-20T12:09:42;9.00;99.90
17619;DHT22;8928;51.678;6.074;2023-12-20T12:12:30;9.00;99.90
17619;DHT22;8928;51.678;6.074;2023-12-20T12:15:18;9.00;99.90
17619;DHT22;8928;51.678;6.074;2023-12-20T12:18:05;9.10;99.90
17619;DHT22;8928;51.678;6.074;2023-12-20T12:21:00;9.10;99.90
17619;DHT22;8928;51.678;6.074;2023-12-20T12:23:47;9.00;99.90
17619;DHT22;8928;51.678;6.074;2023-12-20T12:26:35;9.00;99.90
17619;DHT22;8928;51.678;6.074;2023-12-20T12:29:22;9.10;99.90
17619;DHT22;8928;51.678;6.074;2023-12-20T12:32:10;9.00;99.90
17619;DHT22;8928;51.678;6.074;2023-12-20T12:34:57;8.90;99.90
17619;DHT22;8928;51.678;6.074;2023-12-20T12:37:44;8.90;99.90
17619;DHT22;8928;51.678;6.074;2023-12-20T12:40:34;8.80;99.90
17619;DHT22;8928;51.678;6.074;2023-12-20T12:43:23;8.80;99.90
17619;DHT22;8928;51.678;6.074;2023-12-20T12:46:10;8.80;99.90
17619;DHT22;8928;51.678;6.074;2023-12-20T12:48:57;8.70;99.90
17619;DHT22;8928;51.678;6.074;2023-12-20T12:51:44;8.70;99.90
17619;DHT22;8928;51.678;6.074;2023-12-20T12:54:31;8.70;99.90
17619;DHT22;8928;51.678;6.074;2023-12-20T12:57:19;8.70;99.90
17619;DHT22;8928;51.678;6.074;2023-12-20T13:00:08;8.80;99.90
17619;DHT22;8928;51.678;6.074;2023-12-20T13:02:57;8.80;99.90
17619;DHT22;8928;51.678;6.074;2023-12-20T13:05:44;8.80;99.90
17619;DHT22;8928;51.678;6.074;2023-12-20T13:08:31;8.80;99.90
17619;DHT22;8928;51.678;6.074;2023-12-20T13:11:18;8.80;99.90
17619;DHT22;8928;51.678;6.074;2023-12-20T13:14:05;8.70;99.90
17619;DHT22;8928;51.678;6.074;2023-12-20T13:16:57;8.70;99.90
17619;DHT22;8928;51.678;6.074;2023-12-20T13:19:44;8.70;99.90
17619;DHT22;8928;51.678;6.074;2023-12-20T13:22:31;8.70;99.90
17619;DHT22;8928;51.678;6.074;2023-12-20T13:25:18;8.70;99.90
17619;DHT22;8928;51.678;6.074;2023-12-20T13:28:06;8.70;99.90
17619;DHT22;8928;51.678;6.074;2023-12-20T13:30:54;8.70;99.90
17619;DHT22;8928;51.678;6.074;2023-12-20T13:33:42;8.70;99.90
17619;DHT22;8928;51.678;6.074;2023-12-20T13:36:29;8.70;99.90
17619;DHT22;8928;51.678;6.074;2023-12-20T13:39:16;8.70;99.90
17619;DHT22;8928;51.678;6.074;2023-12-20T13:42:04;8.70;99.90
17619;DHT22;8928;51.678;6.074;2023-12-20T13:44:51;8.70;99.90
17619;DHT22;8928;51.678;6.074;2023-12-20T13:47:38;8.70;99.90
17619;DHT22;8928;51.678;6.074;2023-12-20T13:50:26;8.70;99.90
17619;DHT22;8928;51.678;6.074;2023-12-20T13:53:13;8.70;99.90
17619;DHT22;8928;51.678;6.074;2023-12-20T13:56:00;8.70;99.90
17619;DHT22;8928;51.678;6.074;2023-12-20T13:58:47;8.60;99.90
17619;DHT22;8928;51.678;6.074;2023-12-20T14:01:35;8.60;99.90
17619;DHT22;8928;51.678;6.074;2023-12-20T14:04:22;8.60;99.90
17619;DHT22;8928;51.678;6.074;2023-12-20T14:07:11;8.60;99.90
17619;DHT22;8928;51.678;6.074;2023-12-20T14:09:58;8.60;99.90
17619;DHT22;8928;51.678;6.074;2023-12-20T14:12:45;8.60;99.90
17619;DHT22;8928;51.678;6.074;2023-12-20T14:15:32;8.60;99.90
17619;DHT22;8928;51.678;6.074;2023-12-20T14:18:22;8.60;99.90
17619;DHT22;8928;51.678;6.074;2023-12-20T14:21:09;8.70;99.90
17619;DHT22;8928;51.678;6.074;2023-12-20T14:23:58;8.80;99.90
17619;DHT22;8928;51.678;6.074;2023-12-20T14:26:45;8.80;99.90
17619;DHT22;8928;51.678;6.074;2023-12-20T14:29:32;8.80;99.90
17619;DHT22;8928;51.678;6.074;2023-12-20T14:32:20;8.80;99.90
17619;DHT22;8928;51.678;6.074;2023-12-20T14:35:07;8.80;99.90
17619;DHT22;8928;51.678;6.074;2023-12-20T14:37:54;8.80;99.90
17619;DHT22;8928;51.678;6.074;2023-12-20T14:40:43;8.80;99.90
17619;DHT22;8928;51.678;6.074;2023-12-20T14:43:30;8.80;99.90
17619;DHT22;8928;51.678;6.074;2023-12-20T14:46:17;8.80;99.90
17619;DHT22;8928;51.678;6.074;2023-12-20T14:49:04;8.80;99.90
17619;DHT22;8928;51.678;6.074;2023-12-20T14:51:51;8.80;99.90
17619;DHT22;8928;51.678;6.074;2023-12-20T14:54:39;8.80;99.90
17619;DHT22;8928;51.678;6.074;2023-12-20T14:57:30;8.80;99.90
17619;DHT22;8928;51.678;6.074;2023-12-20T15:00:17;8.80;99.90
17619;DHT22;8928;51.678;6.074;2023-12-20T15:03:05;8.80;99.90
17619;DHT22;8928;51.678;6.074;2023-12-20T15:05:52;8.80;99.90
17619;DHT22;8928;51.678;6.074;2023-12-20T15:08:39;8.70;99.90
17619;DHT22;8928;51.678;6.074;2023-12-20T15:11:27;8.70;99.90
17619;DHT22;8928;51.678;6.074;2023-12-20T15:14:15;8.70;99.90
17619;DHT22;8928;51.678;6.074;2023-12-20T15:17:05;8.70;99.90
17619;DHT22;8928;51.678;6.074;2023-12-20T15:19:52;8.70;99.90
17619;DHT22;8928;51.678;6.074;2023-12-20T15:22:39;8.70;99.90
17619;DHT22;8928;51.678;6.074;2023-12-20T15:25:27;8.60;99.90
17619;DHT22;8928;51.678;6.074;2023-12-20T15:28:14;8.60;99.90
17619;DHT22;8928;51.678;6.074;2023-12-20T15:31:04;8.60;99.90
17619;DHT22;8928;51.678;6.074;2023-12-20T15:33:52;8.60;99.90
17619;DHT22;8928;51.678;6.074;2023-12-20T15:36:39;8.60;99.90
17619;DHT22;8928;51.678;6.074;2023-12-20T15:39:27;8.60;99.90
17619;DHT22;8928;51.678;6.074;2023-12-20T15:42:14;8.60;99.90
17619;DHT22;8928;51.678;6.074;2023-12-20T15:45:01;8.60;99.90
17619;DHT22;8928;51.678;6.074;2023-12-20T15:47:49;8.60;99.90
17619;DHT22;8928;51.678;6.074;2023-12-20T15:50:36;8.60;99.90
17619;DHT22;8928;51.678;6.074;2023-12-20T15:53:23;8.60;99.90
17619;DHT22;8928;51.678;6.074;2023-12-20T15:56:10;8.60;99.90
17619;DHT22;8928;51.678;6.074;2023-12-20T15:58:57;8.60;99.90
17619;DHT22;8928;51.678;6.074;2023-12-20T16:01:45;9.30;99.90
17619;DHT22;8928;51.678;6.074;2023-12-20T16:04:34;8.70;99.90
17619;DHT22;8928;51.678;6.074;2023-12-20T16:07:21;8.90;99.90
17619;DHT22;8928;51.678;6.074;2023-12-20T16:10:09;8.80;99.90
17619;DHT22;8928;51.678;6.074;2023-12-20T16:12:56;8.70;99.90
17619;DHT22;8928;51.678;6.074;2023-12-20T16:15:43;8.70;99.90
17619;DHT22;8928;51.678;6.074;2023-12-20T16:18:30;8.70;99.90
17619;DHT22;8928;51.678;6.074;2023-12-20T16:21:19;8.70;99.90
17619;DHT22;8928;51.678;6.074;2023-12-20T16:24:07;8.70;99.90
17619;DHT22;8928;51.678;6.074;2023-12-20T16:26:54;8.70;99.90
17619;DHT22;8928;51.678;6.074;2023-12-20T16:29:41;8.70;99.90
17619;DHT22;8928;51.678;6.074;2023-12-20T16:32:28;8.70;99.90
17619;DHT22;8928;51.678;6.074;2023-12-20T16:35:15;8.70;99.90
17619;DHT22;8928;51.678;6.074;2023-12-20T16:38:04;8.80;99.90
17619;DHT22;8928;51.678;6.074;2023-12-20T16:40:51;8.70;99.90
17619;DHT22;8928;51.678;6.074;2023-12-20T16:43:38;8.60;99.90
17619;DHT22;8928;51.678;6.074;2023-12-20T16:46:25;8.70;99.90
17619;DHT22;8928;51.678;6.074;2023-12-20T16:49:12;8.70;99.90
17619;DHT22;8928;51.678;6.074;2023-12-20T16:51:59;8.70;99.90
17619;DHT22;8928;51.678;6.074;2023-12-20T16:54:47;8.70;99.90
17619;DHT22;8928;51.678;6.074;2023-12-20T16:57:34;8.70;99.90
17619;DHT22;8928;51.678;6.074;2023-12-20T17:00:22;8.70;99.90
17619;DHT22;8928;51.678;6.074;2023-12-20T17:03:09;8.80;99.90
17619;DHT22;8928;51.678;6.074;2023-12-20T17:05:56;8.70;99.90
17619;DHT22;8928;51.678;6.074;2023-12-20T17:08:43;8.80;99.90
17619;DHT22;8928;51.678;6.074;2023-12-20T17:11:32;8.80;99.90
17619;DHT22;8928;51.678;6.074;2023-12-20T17:14:19;8.80;99.90
17619;DHT22;8928;51.678;6.074;2023-12-20T17:17:06;8.70;99.90
17619;DHT22;8928;51.678;6.074;2023-12-20T17:19:54;8.80;99.90
17619;DHT22;8928;51.678;6.074;2023-12-20T17:22:41;8.80;99.90
17619;DHT22;8928;51.678;6.074;2023-12-20T17:25:28;8.80;99.90
17619;DHT22;8928;51.678;6.074;2023-12-20T17:28:17;8.80;99.90
17619;DHT22;8928;51.678;6.074;2023-12-20T17:31:04;8.80;99.90
17619;DHT22;8928;51.678;6.074;2023-12-20T17:33:51;8.80;99.90
17619;DHT22;8928;51.678;6.074;2023-12-20T17:36:39;8.80;99.90
17619;DHT22;8928;51.678;6.074;2023-12-20T17:39:26;8.80;99.90
17619;DHT22;8928;51.678;6.074;2023-12-20T17:42:13;8.80;99.90
17619;DHT22;8928;51.678;6.074;2023-12-20T17:45:02;8.80;99.90
17619;DHT22;8928;51.678;6.074;2023-12-20T17:47:49;8.80;99.90
17619;DHT22;8928;51.678;6.074;2023-12-20T17:50:36;8.80;99.90
17619;DHT22;8928;51.678;6.074;2023-12-20T17:53:23;8.90;99.90
17619;DHT22;8928;51.678;6.074;2023-12-20T17:56:10;8.90;99.90
17619;DHT22;8928;51.678;6.074;2023-12-20T17:58:57;8.80;99.90
17619;DHT22;8928;51.678;6.074;2023-12-20T18:01:46;8.80;99.90
17619;DHT22;8928;51.678;6.074;2023-12-20T18:04:34;8.90;99.90
17619;DHT22;8928;51.678;6.074;2023-12-20T18:07:21;8.80;99.90
17619;DHT22;8928;51.678;6.074;2023-12-20T18:10:08;8.90;99.90
17619;DHT22;8928;51.678;6.074;2023-12-20T18:12:55;8.90;99.90